sensor_id;sensor_type;location;lat;lon;timestamp;pressure;altitude;pressure_sealevel;temperature;humidity
64064;BME280;50314;50.618;10.642;2023-09-12T00:00:55;96489.72;;;24.73;25.12
64064;BME280;50314;50.618;10.642;2023-09-12T00:03:22;96491.59;;;24.72;25.37
64064;BME280;50314;50.618;10.642;2023-09-12T00:05:56;96484.34;;;24.66;25.59
64064;BME280;50314;50.618;10.642;2023-09-12T00:08:22;96481.44;;;24.68;25.33
64064;BME280;50314;50.618;10.642;2023-09-12T00:11:04;96478.75;;;24.61;25.59
64064;BME280;50314;50.618;10.642;2023-09-12T00:13:30;96480.00;;;24.65;25.40
64064;BME280;50314;50.618;10.642;2023-09-12T00:15:57;96480.41;;;24.62;25.36
64064;BME280;50314;50.618;10.642;2023-09-12T00:18:23;96475.03;;;24.62;25.48
64064;BME280;50314;50.618;10.642;2023-09-12T00:20:50;96477.72;;;24.62;25.39
64064;BME280;50314;50.618;10.642;2023-09-12T00:23:15;96475.22;;;24.60;25.54
64064;BME280;50314;50.618;10.642;2023-09-12T00:25:41;96464.69;;;24.59;25.23
64064;BME280;50314;50.618;10.642;2023-09-12T00:28:07;96457.63;;;24.58;25.39
64064;BME280;50314;50.618;10.642;2023-09-12T00:30:33;96465.69;;;24.58;25.49
64064;BME280;50314;50.618;10.642;2023-09-12T00:32:58;96475.84;;;24.56;25.63
64064;BME280;50314;50.618;10.642;2023-09-12T00:35:24;96473.34;;;24.54;25.36
64064;BME280;50314;50.618;10.642;2023-09-12T00:37:49;96471.72;;;24.53;25.51
64064;BME280;50314;50.618;10.642;2023-09-12T00:40:15;96463.00;;;24.51;25.59
64064;BME280;50314;50.618;10.642;2023-09-12T00:42:41;96464.28;;;24.49;25.55
64064;BME280;50314;50.618;10.642;2023-09-12T00:45:06;96466.97;;;24.49;25.53
64064;BME280;50314;50.618;10.642;2023-09-12T00:47:32;96471.69;;;24.47;25.63
64064;BME280;50314;50.618;10.642;2023-09-12T00:49:59;96465.69;;;24.45;25.61
64064;BME280;50314;50.618;10.642;2023-09-12T00:52:27;96468.38;;;24.45;25.64
64064;BME280;50314;50.618;10.642;2023-09-12T00:54:54;96463.19;;;24.43;25.70
64064;BME280;50314;50.618;10.642;2023-09-12T00:57:20;96464.00;;;24.37;25.69
64064;BME280;50314;50.618;10.642;2023-09-12T00:59:47;96466.09;;;24.42;25.63
64064;BME280;50314;50.618;10.642;2023-09-12T01:02:14;96471.69;;;24.40;25.66
64064;BME280;50314;50.618;10.642;2023-09-12T01:04:40;96466.53;;;24.38;25.60
64064;BME280;50314;50.618;10.642;2023-09-12T01:07:06;96462.16;;;24.37;25.72
64064;BME280;50314;50.618;10.642;2023-09-12T01:09:32;96461.53;;;24.35;25.77
64064;BME280;50314;50.618;10.642;2023-09-12T01:11:59;96456.34;;;24.34;25.89
64064;BME280;50314;50.618;10.642;2023-09-12T01:14:28;96453.88;;;24.32;25.74
64064;BME280;50314;50.618;10.642;2023-09-12T01:16:54;96455.94;;;24.30;25.53
64064;BME280;50314;50.618;10.642;2023-09-12T01:19:20;96458.84;;;24.29;25.79
64064;BME280;50314;50.618;10.642;2023-09-12T01:27:42;96465.69;;;24.18;26.23
64064;BME280;50314;50.618;10.642;2023-09-12T01:30:12;96453.47;;;24.22;25.61
64064;BME280;50314;50.618;10.642;2023-09-12T01:32:38;96455.53;;;24.20;25.99
64064;BME280;50314;50.618;10.642;2023-09-12T01:35:04;96458.22;;;24.20;25.75
64064;BME280;50314;50.618;10.642;2023-09-12T01:37:33;96460.09;;;24.20;25.66
64064;BME280;50314;50.618;10.642;2023-09-12T01:39:59;96455.75;;;24.19;25.59
64064;BME280;50314;50.618;10.642;2023-09-12T01:42:31;96455.94;;;24.17;25.72
64064;BME280;50314;50.618;10.642;2023-09-12T01:45:01;96452.22;;;24.18;25.83
64064;BME280;50314;50.618;10.642;2023-09-12T01:47:28;96445.16;;;24.17;25.55
64064;BME280;50314;50.618;10.642;2023-09-12T01:49:56;96453.03;;;24.12;25.94
64064;BME280;50314;50.618;10.642;2023-09-12T01:52:24;96452.63;;;24.15;25.60
64064;BME280;50314;50.618;10.642;2023-09-12T01:54:50;96458.00;;;24.15;26.01
64064;BME280;50314;50.618;10.642;2023-09-12T01:57:18;96457.38;;;24.13;25.81
64064;BME280;50314;50.618;10.642;2023-09-12T01:59:51;96460.47;;;24.10;26.09
64064;BME280;50314;50.618;10.642;2023-09-12T02:02:19;96465.03;;;24.09;25.79
64064;BME280;50314;50.618;10.642;2023-09-12T02:05:07;96460.69;;;24.02;26.03
64064;BME280;50314;50.618;10.642;2023-09-12T02:07:37;96458.19;;;24.07;26.06
64064;BME280;50314;50.618;10.642;2023-09-12T02:10:03;96453.84;;;24.06;25.64
64064;BME280;50314;50.618;10.642;2023-09-12T02:12:29;96460.06;;;24.00;26.13
64064;BME280;50314;50.618;10.642;2023-09-12T02:14:55;96457.59;;;24.05;25.88
64064;BME280;50314;50.618;10.642;2023-09-12T02:17:20;96455.09;;;24.03;25.82
64064;BME280;50314;50.618;10.642;2023-09-12T02:19:47;96447.25;;;24.02;25.75
64064;BME280;50314;50.618;10.642;2023-09-12T02:22:13;96449.09;;;24.01;25.64
64064;BME280;50314;50.618;10.642;2023-09-12T02:24:38;96443.09;;;23.99;25.58
64064;BME280;50314;50.618;10.642;2023-09-12T02:27:04;96437.06;;;23.97;26.00
64064;BME280;50314;50.618;10.642;2023-09-12T02:29:29;96443.31;;;23.98;25.85
64064;BME280;50314;50.618;10.642;2023-09-12T02:31:56;96442.44;;;23.97;25.83
64064;BME280;50314;50.618;10.642;2023-09-12T02:34:21;96436.44;;;23.95;25.66
64064;BME280;50314;50.618;10.642;2023-09-12T02:36:47;96436.63;;;23.93;26.02
64064;BME280;50314;50.618;10.642;2023-09-12T02:39:12;96436.03;;;23.91;25.65
64064;BME280;50314;50.618;10.642;2023-09-12T02:41:38;96444.28;;;23.90;25.96
64064;BME280;50314;50.618;10.642;2023-09-12T02:44:05;96441.59;;;23.90;25.95
64064;BME280;50314;50.618;10.642;2023-09-12T02:46:30;96438.88;;;23.83;26.28
64064;BME280;50314;50.618;10.642;2023-09-12T02:48:56;96434.78;;;23.87;25.98
64064;BME280;50314;50.618;10.642;2023-09-12T02:51:21;96432.09;;;23.87;26.05
64064;BME280;50314;50.618;10.642;2023-09-12T02:53:47;96433.09;;;23.86;25.88
64064;BME280;50314;50.618;10.642;2023-09-12T02:56:12;96434.34;;;23.84;25.99
64064;BME280;50314;50.618;10.642;2023-09-12T02:58:38;96435.38;;;23.83;25.81
64064;BME280;50314;50.618;10.642;2023-09-12T03:01:03;96436.41;;;23.82;26.04
64064;BME280;50314;50.618;10.642;2023-09-12T03:03:31;96436.41;;;23.82;25.82
64064;BME280;50314;50.618;10.642;2023-09-12T03:06:01;96436.81;;;23.79;26.17
64064;BME280;50314;50.618;10.642;2023-09-12T03:08:30;96437.66;;;23.79;25.94
64064;BME280;50314;50.618;10.642;2023-09-12T03:10:56;96439.50;;;23.79;26.13
64064;BME280;50314;50.618;10.642;2023-09-12T03:13:25;96440.75;;;23.76;26.08
64064;BME280;50314;50.618;10.642;2023-09-12T03:15:51;96442.59;;;23.76;26.36
64064;BME280;50314;50.618;10.642;2023-09-12T03:18:17;96435.56;;;23.75;26.30
64064;BME280;50314;50.618;10.642;2023-09-12T03:20:42;96440.13;;;23.74;25.81
64064;BME280;50314;50.618;10.642;2023-09-12T03:23:08;96438.44;;;23.73;26.13
64064;BME280;50314;50.618;10.642;2023-09-12T03:25:37;96429.97;;;23.69;26.32
64064;BME280;50314;50.618;10.642;2023-09-12T03:28:04;96438.03;;;23.69;26.26
64064;BME280;50314;50.618;10.642;2023-09-12T03:30:32;96419.44;;;23.68;26.21
64064;BME280;50314;50.618;10.642;2023-09-12T03:32:58;96419.44;;;23.68;26.25
64064;BME280;50314;50.618;10.642;2023-09-12T03:35:23;96420.44;;;23.67;25.92
64064;BME280;50314;50.618;10.642;2023-09-12T03:37:49;96413.41;;;23.66;26.27
64064;BME280;50314;50.618;10.642;2023-09-12T03:40:14;96410.13;;;23.64;26.26
64064;BME280;50314;50.618;10.642;2023-09-12T03:42:40;96415.69;;;23.62;26.40
64064;BME280;50314;50.618;10.642;2023-09-12T03:45:06;96414.88;;;23.62;25.93
64064;BME280;50314;50.618;10.642;2023-09-12T03:47:32;96423.16;;;23.60;26.28
64064;BME280;50314;50.618;10.642;2023-09-12T03:49:58;96423.97;;;23.61;26.00
64064;BME280;50314;50.618;10.642;2023-09-12T03:52:23;96431.22;;;23.60;26.08
64064;BME280;50314;50.618;10.642;2023-09-12T03:54:49;96434.09;;;23.59;26.08
64064;BME280;50314;50.618;10.642;2023-09-12T03:57:15;96433.44;;;23.57;25.90
64064;BME280;50314;50.618;10.642;2023-09-12T03:59:40;96434.47;;;23.56;26.16
64064;BME280;50314;50.618;10.642;2023-09-12T04:02:06;96433.88;;;23.54;26.33
64064;BME280;50314;50.618;10.642;2023-09-12T04:04:32;96429.50;;;23.53;26.32
64064;BME280;50314;50.618;10.642;2023-09-12T04:06:57;96431.59;;;23.51;26.12
64064;BME280;50314;50.618;10.642;2023-09-12T04:09:23;96430.94;;;23.49;26.47
64064;BME280;50314;50.618;10.642;2023-09-12T04:11:48;96429.31;;;23.48;26.09
64064;BME280;50314;50.618;10.642;2023-09-12T04:14:14;96430.94;;;23.49;26.45
64064;BME280;50314;50.618;10.642;2023-09-12T04:16:40;96426.63;;;23.48;26.43
64064;BME280;50314;50.618;10.642;2023-09-12T04:19:05;96426.81;;;23.46;26.48
64064;BME280;50314;50.618;10.642;2023-09-12T04:21:31;96434.88;;;23.46;26.13
64064;BME280;50314;50.618;10.642;2023-09-12T04:23:56;96427.84;;;23.45;26.39
64064;BME280;50314;50.618;10.642;2023-09-12T04:26:22;96431.56;;;23.44;26.41
64064;BME280;50314;50.618;10.642;2023-09-12T04:28:47;96430.75;;;23.43;26.57
64064;BME280;50314;50.618;10.642;2023-09-12T04:31:13;96426.38;;;23.42;26.10
64064;BME280;50314;50.618;10.642;2023-09-12T04:33:39;96437.13;;;23.42;26.44
64064;BME280;50314;50.618;10.642;2023-09-12T04:36:04;96429.25;;;23.41;26.26
64064;BME280;50314;50.618;10.642;2023-09-12T04:38:30;96426.75;;;23.39;26.02
64064;BME280;50314;50.618;10.642;2023-09-12T04:40:56;96420.53;;;23.39;26.38
64064;BME280;50314;50.618;10.642;2023-09-12T04:43:23;96432.94;;;23.40;26.22
64064;BME280;50314;50.618;10.642;2023-09-12T04:45:49;96425.09;;;23.38;26.64
64064;BME280;50314;50.618;10.642;2023-09-12T04:48:14;96428.00;;;23.37;26.68
64064;BME280;50314;50.618;10.642;2023-09-12T04:50:43;96421.16;;;23.34;26.28
64064;BME280;50314;50.618;10.642;2023-09-12T04:53:08;96431.69;;;23.36;26.31
64064;BME280;50314;50.618;10.642;2023-09-12T04:55:37;96427.56;;;23.33;26.47
64064;BME280;50314;50.618;10.642;2023-09-12T04:58:04;96432.72;;;23.35;26.49
64064;BME280;50314;50.618;10.642;2023-09-12T05:00:30;96432.09;;;23.33;26.38
64064;BME280;50314;50.618;10.642;2023-09-12T05:02:56;96436.63;;;23.32;26.45
64064;BME280;50314;50.618;10.642;2023-09-12T05:05:21;96438.50;;;23.32;26.41
64064;BME280;50314;50.618;10.642;2023-09-12T05:07:47;96439.31;;;23.32;26.14
64064;BME280;50314;50.618;10.642;2023-09-12T05:10:13;96440.38;;;23.31;26.68
64064;BME280;50314;50.618;10.642;2023-09-12T05:12:38;96433.34;;;23.30;26.46
64064;BME280;50314;50.618;10.642;2023-09-12T05:15:04;96439.72;;;23.29;26.12
64064;BME280;50314;50.618;10.642;2023-09-12T05:17:30;96432.72;;;23.28;26.71
64064;BME280;50314;50.618;10.642;2023-09-12T05:19:56;96436.22;;;23.29;26.32
64064;BME280;50314;50.618;10.642;2023-09-12T05:22:21;96435.38;;;23.28;26.33
64064;BME280;50314;50.618;10.642;2023-09-12T05:24:47;96440.75;;;23.28;26.38
64064;BME280;50314;50.618;10.642;2023-09-12T05:27:13;96444.50;;;23.27;26.18
64064;BME280;50314;50.618;10.642;2023-09-12T05:29:38;96440.97;;;23.27;26.36
64064;BME280;50314;50.618;10.642;2023-09-12T05:32:04;96448.19;;;23.26;26.49
64064;BME280;50314;50.618;10.642;2023-09-12T05:34:30;96445.50;;;23.26;26.16
64064;BME280;50314;50.618;10.642;2023-09-12T05:36:56;96443.03;;;23.25;26.64
64064;BME280;50314;50.618;10.642;2023-09-12T05:39:22;96441.16;;;23.25;26.26
64064;BME280;50314;50.618;10.642;2023-09-12T05:41:48;96443.81;;;23.18;25.55
64064;BME280;50314;50.618;10.642;2023-09-12T05:44:14;96434.91;;;23.11;25.50
64064;BME280;50314;50.618;10.642;2023-09-12T05:46:46;96438.19;;;23.07;25.45
64064;BME280;50314;50.618;10.642;2023-09-12T05:49:13;96436.34;;;23.07;25.47
64064;BME280;50314;50.618;10.642;2023-09-12T05:51:39;96444.41;;;23.07;25.77
64064;BME280;50314;50.618;10.642;2023-09-12T05:54:05;96438.19;;;23.07;25.76
64064;BME280;50314;50.618;10.642;2023-09-12T05:56:30;96444.41;;;23.07;25.98
64064;BME280;50314;50.618;10.642;2023-09-12T05:58:56;96440.88;;;23.07;25.59
64064;BME280;50314;50.618;10.642;2023-09-12T06:01:21;96439.84;;;23.08;26.18
64064;BME280;50314;50.618;10.642;2023-09-12T06:03:47;96439.84;;;23.08;25.64
64064;BME280;50314;50.618;10.642;2023-09-12T06:06:12;96443.34;;;23.08;25.74
64064;BME280;50314;50.618;10.642;2023-09-12T06:08:38;96448.53;;;23.10;26.00
64064;BME280;50314;50.618;10.642;2023-09-12T06:11:04;96444.00;;;23.10;25.89
64064;BME280;50314;50.618;10.642;2023-09-12T06:13:29;96437.38;;;23.13;26.09
64064;BME280;50314;50.618;10.642;2023-09-12T06:15:55;96445.25;;;23.14;25.57
64064;BME280;50314;50.618;10.642;2023-09-12T06:18:21;96445.91;;;23.16;26.08
64064;BME280;50314;50.618;10.642;2023-09-12T06:20:46;96448.16;;;23.19;25.74
64064;BME280;50314;50.618;10.642;2023-09-12T06:23:12;96446.94;;;23.22;26.08
64064;BME280;50314;50.618;10.642;2023-09-12T06:25:37;96446.53;;;23.25;26.05
64064;BME280;50314;50.618;10.642;2023-09-12T06:28:03;96455.25;;;23.27;26.20
64064;BME280;50314;50.618;10.642;2023-09-12T06:30:29;96462.91;;;23.30;26.31
64064;BME280;50314;50.618;10.642;2023-09-12T06:32:55;96461.88;;;23.31;26.40
64064;BME280;50314;50.618;10.642;2023-09-12T06:35:20;96464.34;;;23.33;26.15
64064;BME280;50314;50.618;10.642;2023-09-12T06:37:46;96466.84;;;23.34;26.40
64064;BME280;50314;50.618;10.642;2023-09-12T06:40:12;96455.69;;;23.37;26.39
64064;BME280;50314;50.618;10.642;2023-09-12T06:42:38;96456.31;;;23.39;26.08
64064;BME280;50314;50.618;10.642;2023-09-12T06:45:04;96452.25;;;23.43;26.43
64064;BME280;50314;50.618;10.642;2023-09-12T06:47:30;96445.44;;;23.48;26.08
64064;BME280;50314;50.618;10.642;2023-09-12T06:49:55;96447.72;;;23.51;26.34
64064;BME280;50314;50.618;10.642;2023-09-12T06:52:21;96443.38;;;23.56;25.96
64064;BME280;50314;50.618;10.642;2023-09-12T06:54:47;96449.16;;;23.60;26.20
64064;BME280;50314;50.618;10.642;2023-09-12T06:57:13;96452.28;;;23.63;25.92
64064;BME280;50314;50.618;10.642;2023-09-12T06:59:39;96454.38;;;23.68;26.09
64064;BME280;50314;50.618;10.642;2023-09-12T07:02:04;96452.94;;;23.72;25.74
64064;BME280;50314;50.618;10.642;2023-09-12T07:04:30;96450.47;;;23.77;26.17
64064;BME280;50314;50.618;10.642;2023-09-12T07:06:55;96448.81;;;23.83;26.24
64064;BME280;50314;50.618;10.642;2023-09-12T07:09:21;96456.91;;;23.89;26.08
64064;BME280;50314;50.618;10.642;2023-09-12T07:11:48;96461.66;;;23.87;26.14
64064;BME280;50314;50.618;10.642;2023-09-12T07:14:13;96468.34;;;23.98;25.56
64064;BME280;50314;50.618;10.642;2023-09-12T07:16:40;96468.75;;;24.02;25.91
64064;BME280;50314;50.618;10.642;2023-09-12T07:19:07;96472.47;;;24.07;25.80
64064;BME280;50314;50.618;10.642;2023-09-12T07:21:35;96469.19;;;24.12;25.47
64064;BME280;50314;50.618;10.642;2023-09-12T07:24:01;96467.31;;;24.19;25.83
64064;BME280;50314;50.618;10.642;2023-09-12T07:26:26;96463.19;;;24.23;25.72
64064;BME280;50314;50.618;10.642;2023-09-12T07:28:52;96467.13;;;24.27;25.62
64064;BME280;50314;50.618;10.642;2023-09-12T07:31:17;96461.13;;;24.32;25.54
64064;BME280;50314;50.618;10.642;2023-09-12T07:33:43;96461.31;;;24.37;25.49
64064;BME280;50314;50.618;10.642;2023-09-12T07:36:09;96460.31;;;24.45;25.28
64064;BME280;50314;50.618;10.642;2023-09-12T07:38:34;96463.84;;;24.52;25.58
64064;BME280;50314;50.618;10.642;2023-09-12T07:41:02;96466.75;;;24.57;25.34
64064;BME280;50314;50.618;10.642;2023-09-12T07:43:28;96460.53;;;24.63;25.39
64064;BME280;50314;50.618;10.642;2023-09-12T07:45:58;96460.72;;;24.68;25.30
64064;BME280;50314;50.618;10.642;2023-09-12T07:48:23;96453.47;;;24.75;25.31
64064;BME280;50314;50.618;10.642;2023-09-12T07:50:49;96453.47;;;24.82;25.14
64064;BME280;50314;50.618;10.642;2023-09-12T07:53:16;96459.84;;;24.88;25.23
64064;BME280;50314;50.618;10.642;2023-09-12T07:55:42;96456.97;;;24.96;25.44
64064;BME280;50314;50.618;10.642;2023-09-12T07:58:18;96454.28;;;25.02;24.99
64064;BME280;50314;50.618;10.642;2023-09-12T08:00:49;96449.28;;;25.13;25.08
64064;BME280;50314;50.618;10.642;2023-09-12T08:03:15;96455.25;;;25.21;25.08
64064;BME280;50314;50.618;10.642;2023-09-12T08:05:40;96453.97;;;25.30;24.98
64064;BME280;50314;50.618;10.642;2023-09-12T08:08:06;96447.91;;;25.42;24.86
64064;BME280;50314;50.618;10.642;2023-09-12T08:10:32;96441.91;;;25.53;24.75
64064;BME280;50314;50.618;10.642;2023-09-12T08:12:57;96442.44;;;25.62;24.58
64064;BME280;50314;50.618;10.642;2023-09-12T08:15:23;96443.66;;;25.66;24.36
64064;BME280;50314;50.618;10.642;2023-09-12T08:17:49;96445.50;;;25.72;24.63
64064;BME280;50314;50.618;10.642;2023-09-12T08:20:18;96444.56;;;25.91;24.28
64064;BME280;50314;50.618;10.642;2023-09-12T08:22:43;96436.28;;;26.24;23.90
64064;BME280;50314;50.618;10.642;2023-09-12T08:25:09;96441.19;;;26.59;23.31
64064;BME280;50314;50.618;10.642;2023-09-12T08:27:35;96443.19;;;26.89;23.86
64064;BME280;50314;50.618;10.642;2023-09-12T08:30:01;96427.31;;;27.17;22.96
64064;BME280;50314;50.618;10.642;2023-09-12T08:32:29;96419.94;;;27.43;23.07
64064;BME280;50314;50.618;10.642;2023-09-12T08:34:54;96425.13;;;27.75;22.49
64064;BME280;50314;50.618;10.642;2023-09-12T08:37:19;96422.22;;;28.06;22.18
64064;BME280;50314;50.618;10.642;2023-09-12T08:39:45;96420.84;;;28.39;21.88
64064;BME280;50314;50.618;10.642;2023-09-12T08:42:16;96426.53;;;28.49;21.41
64064;BME280;50314;50.618;10.642;2023-09-12T08:44:42;96427.25;;;28.45;21.56
64064;BME280;50314;50.618;10.642;2023-09-12T08:47:09;96421.47;;;28.76;21.43
64064;BME280;50314;50.618;10.642;2023-09-12T08:49:36;96440.22;;;29.01;21.17
64064;BME280;50314;50.618;10.642;2023-09-12T08:52:07;96441.59;;;29.16;20.99
64064;BME280;50314;50.618;10.642;2023-09-12T08:54:33;96437.13;;;29.21;20.68
64064;BME280;50314;50.618;10.642;2023-09-12T08:57:01;96425.00;;;29.12;20.77
64064;BME280;50314;50.618;10.642;2023-09-12T08:59:29;96423.34;;;28.99;20.94
64064;BME280;50314;50.618;10.642;2023-09-12T09:01:56;96416.25;;;28.87;20.93
64064;BME280;50314;50.618;10.642;2023-09-12T09:04:23;96420.63;;;28.76;20.96
64064;BME280;50314;50.618;10.642;2023-09-12T09:06:52;96425.81;;;28.66;21.03
64064;BME280;50314;50.618;10.642;2023-09-12T09:09:20;96429.97;;;28.56;21.15
64064;BME280;50314;50.618;10.642;2023-09-12T09:11:46;96421.09;;;28.49;21.26
64064;BME280;50314;50.618;10.642;2023-09-12T09:14:11;96432.41;;;28.46;21.38
64064;BME280;50314;50.618;10.642;2023-09-12T09:16:37;96425.13;;;28.47;21.39
64064;BME280;50314;50.618;10.642;2023-09-12T09:19:04;96430.66;;;28.52;21.20
64064;BME280;50314;50.618;10.642;2023-09-12T09:21:37;96429.72;;;28.70;21.68
64064;BME280;50314;50.618;10.642;2023-09-12T09:24:08;96433.75;;;28.91;21.22
64064;BME280;50314;50.618;10.642;2023-09-12T09:26:45;96427.31;;;29.20;20.76
64064;BME280;50314;50.618;10.642;2023-09-12T09:29:18;96417.53;;;29.31;20.77
64064;BME280;50314;50.618;10.642;2023-09-12T09:31:46;96419.13;;;29.56;20.42
64064;BME280;50314;50.618;10.642;2023-09-12T09:34:17;96418.16;;;29.62;20.36
64064;BME280;50314;50.618;10.642;2023-09-12T09:36:43;96416.97;;;29.58;20.29
64064;BME280;50314;50.618;10.642;2023-09-12T09:39:10;96419.31;;;29.66;20.33
64064;BME280;50314;50.618;10.642;2023-09-12T09:41:37;96430.31;;;29.59;20.16
64064;BME280;50314;50.618;10.642;2023-09-12T09:44:07;96426.09;;;29.52;20.39
64064;BME280;50314;50.618;10.642;2023-09-12T09:46:33;96432.50;;;29.45;20.32
64064;BME280;50314;50.618;10.642;2023-09-12T09:48:58;96435.69;;;29.42;20.52
64064;BME280;50314;50.618;10.642;2023-09-12T09:51:25;96428.63;;;29.41;20.52
64064;BME280;50314;50.618;10.642;2023-09-12T09:53:51;96427.53;;;29.42;20.52
64064;BME280;50314;50.618;10.642;2023-09-12T09:56:18;96426.50;;;29.72;20.47
64064;BME280;50314;50.618;10.642;2023-09-12T10:03:42;96420.56;;;30.04;20.21
64064;BME280;50314;50.618;10.642;2023-09-12T10:06:08;96417.09;;;29.91;20.16
64064;BME280;50314;50.618;10.642;2023-09-12T10:08:35;96419.56;;;29.93;20.13
64064;BME280;50314;50.618;10.642;2023-09-12T10:11:02;96415.69;;;29.89;20.05
64064;BME280;50314;50.618;10.642;2023-09-12T10:13:29;96417.78;;;30.15;20.16
64064;BME280;50314;50.618;10.642;2023-09-12T10:15:59;96405.13;;;30.38;19.79
64064;BME280;50314;50.618;10.642;2023-09-12T10:18:28;96412.63;;;30.31;19.61
64064;BME280;50314;50.618;10.642;2023-09-12T10:21:05;96416.47;;;30.52;19.69
64064;BME280;50314;50.618;10.642;2023-09-12T10:23:41;96413.84;;;30.57;19.68
64064;BME280;50314;50.618;10.642;2023-09-12T10:26:13;96417.41;;;30.57;19.50
64064;BME280;50314;50.618;10.642;2023-09-12T10:28:43;96417.66;;;30.56;19.55
64064;BME280;50314;50.618;10.642;2023-09-12T10:31:11;96413.38;;;30.60;19.54
64064;BME280;50314;50.618;10.642;2023-09-12T10:33:38;96417.31;;;30.52;19.63
64064;BME280;50314;50.618;10.642;2023-09-12T10:36:05;96423.66;;;30.41;19.67
64064;BME280;50314;50.618;10.642;2023-09-12T10:38:47;96421.72;;;30.25;19.66
64064;BME280;50314;50.618;10.642;2023-09-12T10:41:14;96414.41;;;30.25;19.56
64064;BME280;50314;50.618;10.642;2023-09-12T10:43:41;96419.13;;;30.30;19.62
64064;BME280;50314;50.618;10.642;2023-09-12T10:46:08;96423.16;;;30.27;19.80
64064;BME280;50314;50.618;10.642;2023-09-12T10:48:37;96425.53;;;30.24;20.06
64064;BME280;50314;50.618;10.642;2023-09-12T10:51:03;96427.03;;;30.48;19.68
64064;BME280;50314;50.618;10.642;2023-09-12T10:53:30;96421.75;;;30.75;19.29
64064;BME280;50314;50.618;10.642;2023-09-12T10:56:18;96420.84;;;30.86;19.28
64064;BME280;50314;50.618;10.642;2023-09-12T11:01:43;96419.31;;;31.34;18.95
64064;BME280;50314;50.618;10.642;2023-09-12T11:06:52;96421.66;;;31.48;18.73
64064;BME280;50314;50.618;10.642;2023-09-12T11:09:21;96415.94;;;31.49;18.63
64064;BME280;50314;50.618;10.642;2023-09-12T11:11:54;96414.22;;;31.43;18.69
64064;BME280;50314;50.618;10.642;2023-09-12T11:14:20;96414.78;;;31.40;19.25
64064;BME280;50314;50.618;10.642;2023-09-12T11:20:06;96413.28;;;31.10;18.79
64064;BME280;50314;50.618;10.642;2023-09-12T11:22:36;96404.31;;;31.10;19.31
64064;BME280;50314;50.618;10.642;2023-09-12T11:25:05;96406.72;;;31.06;19.15
64064;BME280;50314;50.618;10.642;2023-09-12T11:30:11;96410.16;;;31.02;19.67
64064;BME280;50314;50.618;10.642;2023-09-12T11:32:37;96412.56;;;30.98;19.66
64064;BME280;50314;50.618;10.642;2023-09-12T11:35:07;96409.47;;;30.89;19.46
64064;BME280;50314;50.618;10.642;2023-09-12T11:37:34;96402.88;;;30.85;19.43
64064;BME280;50314;50.618;10.642;2023-09-12T11:40:16;96411.47;;;30.77;19.45
64064;BME280;50314;50.618;10.642;2023-09-12T11:42:43;96415.31;;;30.81;19.51
64064;BME280;50314;50.618;10.642;2023-09-12T11:45:09;96401.09;;;30.74;19.71
64064;BME280;50314;50.618;10.642;2023-09-12T11:47:40;96409.88;;;30.81;19.20
64064;BME280;50314;50.618;10.642;2023-09-12T11:50:06;96405.28;;;30.82;19.60
64064;BME280;50314;50.618;10.642;2023-09-12T11:52:36;96403.63;;;30.81;19.63
64064;BME280;50314;50.618;10.642;2023-09-12T11:55:01;96402.81;;;30.80;19.98
64064;BME280;50314;50.618;10.642;2023-09-12T11:57:27;96407.44;;;30.80;19.44
64064;BME280;50314;50.618;10.642;2023-09-12T11:59:52;96404.44;;;30.81;19.89
64064;BME280;50314;50.618;10.642;2023-09-12T12:02:18;96408.25;;;30.80;19.73
64064;BME280;50314;50.618;10.642;2023-09-12T12:04:44;96396.56;;;30.80;20.03
64064;BME280;50314;50.618;10.642;2023-09-12T12:07:10;96401.16;;;30.79;20.03
64064;BME280;50314;50.618;10.642;2023-09-12T12:09:36;96399.50;;;30.78;20.08
64064;BME280;50314;50.618;10.642;2023-09-12T12:12:19;96401.09;;;30.74;19.54
64064;BME280;50314;50.618;10.642;2023-09-12T12:14:45;96406.59;;;30.79;20.13
64064;BME280;50314;50.618;10.642;2023-09-12T12:17:12;96397.88;;;30.77;19.50
64064;BME280;50314;50.618;10.642;2023-09-12T12:19:38;96397.06;;;30.77;19.83
64064;BME280;50314;50.618;10.642;2023-09-12T12:22:05;96395.41;;;30.76;19.89
64064;BME280;50314;50.618;10.642;2023-09-12T12:25:07;96389.63;;;30.72;19.71
64064;BME280;50314;50.618;10.642;2023-09-12T12:27:37;96387.50;;;30.74;20.02
64064;BME280;50314;50.618;10.642;2023-09-12T12:30:09;96380.16;;;30.75;19.93
64064;BME280;50314;50.618;10.642;2023-09-12T12:32:46;96385.50;;;30.70;20.17
64064;BME280;50314;50.618;10.642;2023-09-12T12:35:22;96383.84;;;30.68;20.08
64064;BME280;50314;50.618;10.642;2023-09-12T12:37:49;96380.09;;;30.70;20.19
64064;BME280;50314;50.618;10.642;2023-09-12T12:40:16;96376.78;;;30.67;19.92
64064;BME280;50314;50.618;10.642;2023-09-12T12:42:43;96375.97;;;30.67;20.32
64064;BME280;50314;50.618;10.642;2023-09-12T12:45:16;96371.84;;;30.64;19.87
64064;BME280;50314;50.618;10.642;2023-09-12T12:47:42;96371.59;;;30.66;19.82
64064;BME280;50314;50.618;10.642;2023-09-12T12:50:10;96366.66;;;30.63;20.40
64064;BME280;50314;50.618;10.642;2023-09-12T12:52:37;96359.56;;;30.62;20.36
64064;BME280;50314;50.618;10.642;2023-09-12T12:55:06;96357.34;;;30.59;20.41
64064;BME280;50314;50.618;10.642;2023-09-12T12:57:36;96355.16;;;30.56;19.89
64064;BME280;50314;50.618;10.642;2023-09-12T13:00:01;96351.59;;;30.55;20.45
64064;BME280;50314;50.618;10.642;2023-09-12T13:02:28;96344.22;;;30.51;20.07
64064;BME280;50314;50.618;10.642;2023-09-12T13:04:53;96348.66;;;30.57;20.19
64064;BME280;50314;50.618;10.642;2023-09-12T13:07:19;96349.72;;;30.56;20.45
64064;BME280;50314;50.618;10.642;2023-09-12T13:09:44;96346.44;;;30.54;20.13
64064;BME280;50314;50.618;10.642;2023-09-12T13:12:13;96342.06;;;30.53;20.62